ASN logo
ASN Wikibase Occurrence # 162702
Last updated: 8 August 2019
This information is added by users of ASN. Neither ASN nor the Flight Safety Foundation are responsible for the completeness or correctness of this information. If you feel this information is incomplete or incorrect, you can submit corrected information.

Date:11-DEC-2013
Time:18:45
Type:Silhouette image of generic AT72 model; specific model in this crash may look slightly different
ATR 72-500 (72-212A)
Owner/operator:Binter Canarias
Registration: EC-LFA
C/n / msn: 902
Fatalities:Fatalities: 0 / Occupants: 55
Other fatalities:0
Aircraft damage: None
Location:Tenerife-Los Rodeos Intl AP (GCXO), Canary Islands -   Spain
Phase: Landing
Nature:Domestic Scheduled Passenger
Departure airport:Las Palmas-Airport de Gran Canaria (LPA/GCLP
Destination airport:Tenerife-Los Rodeos Intl AP (GCXO),
Narrative:
Upon landing, in rainy weather conditions, the plane veered from the runway and ended up on soft ground. There were no personal injuries.
The ATR-72 operated flight NT-169 from Las Palmas.

Weather reported about the time of the accident (18:45 LT & UTC) was:
GCXO 111900Z 18007KT 120V230 1500 -RA VCFG FEW000 OVC003 14/14 Q1018 NOSIG
GCXO 111830Z 15008KT 100V200 3000 0500SE -RA VCFG FEW000 OVC003 14/14 Q1017 NOSIG
GCXO 111800Z 18004KT 130V240 3000 0800SE -RA VCFG FEW000 OVC006 14/14 Q1017 NOSIG

Sources:

http://www.universocanario.com/sucesos/tenerife/un-avion-de-binter-obliga-cerrar-el-aeropuerto-de-/un-avion-de-binter-se-sale-de-la-pista-en-tfn/323385


Images:

Photo of EC-LFA courtesy AirHistory.net


Tenerife Sur - Reina Sofia (GCTS / TFS)
26 April 2018; (c) Danny Grew

Revision history:

Date/timeContributorUpdates
12-Dec-2013 08:00 gerard57 Added
12-Dec-2013 09:05 harro Updated [Time, Departure airport, Embed code, Damage, Narrative]

Corrections or additions? ... Edit this accident description